Miami, Florida
Traffic Map
Current Weather Conditions
Miami, Florida
Scattered Clouds
Scattered Clouds
81°
Feels Like: 88°
Wind Chill: 81° Ceiling: Unl
Heat Index: 88° Visibility: 10mi
Dew Point: 77° Wind: 0mph
Humidity: 88% Direction: ° ()
Pressure: 30.04in Gusts: 0mph
Raw Report DataKMIA 010953Z 00000KT 10SM SCT023 SCT250 27/25 A3004 RMK AO2 SLP173 T02720250 $
Traffic Incident Summary
Active as of:
Severity:
Category:
InformationThere was an issue retrieving the traffic information for this location. Please try a different location or try again shortly.
Advertisements
Track Severe Weather on mobile